Heitorai, Brazil
Current Conditions -  °F | °C
As of 10:00 PM on Wednesday 22 Oct 2014 (Local Time) from SBAN Reporting Station
Broken Clouds Broken Clouds  
Wind Chill: 68°   Ceiling: 10000
Heat Index: 68°   Visibility: 6mi
Dew Point: 61°   Wind: 5mph
Humidity: 78%   Direction: 50°NE
Pressure: 30.12"   Gusts: NA
Location:  15.72°S, 49.83°W
Report Text: SBAN 230000Z 05004KT 9999 SCT030 BKN100 20/16 Q1020
Loading
Personal Weather Stations






























Interactive Weather Map
Tropical Storm Tracking
New forecast layout! Learn more

10-Day Weather Forecast

Advertisements
Track Severe Weather on mobile